Terminal Aerodrome Forecast
Issued by NWS

Home | Current Version | Previous Version | Text Only | Print | Product List | Glossary On
Versions: 1 2 3 4 5 6 7 8 9 10 11 12 13 14 15 16 17 18 19 20
000
FTUS46 KSEW 201720
TAFOLM
TAF
KOLM 201720Z 2018/2118 02005KT P6SM -RA SCT080 BKN100 BKN200
     FM201900 06005KT P6SM -RA BKN050 OVC080
     FM210200 VRB03KT P6SM SCT040 OVC080
     FM210900 VRB03KT 2SM BR BKN001=

USA.gov is the U.S. government's official web portal to all federal, state and local government web resources and services.